createdAt,value
2018-03-03T00:02:26.201Z,102.10
2018-03-03T00:04:53.717Z,103.93
2018-03-03T00:07:21.248Z,99.87
2018-03-03T00:09:49.525Z,109.63
2018-03-03T00:12:17.834Z,109.60
2018-03-03T00:14:45.322Z,105.60
2018-03-03T00:17:12.846Z,110.93
2018-03-03T00:19:40.385Z,104.57
2018-03-03T00:22:07.954Z,107.50
2018-03-03T00:24:35.450Z,103.23
2018-03-03T00:27:02.966Z,110.73
2018-03-03T00:29:30.518Z,108.40
2018-03-03T00:31:58.802Z,118.00
2018-03-03T00:34:26.345Z,119.20
2018-03-03T00:36:54.624Z,108.13
2018-03-03T00:39:23.127Z,106.27
2018-03-03T00:41:50.632Z,108.47
2018-03-03T00:44:18.225Z,109.43
2018-03-03T00:46:45.743Z,107.83
2018-03-03T00:49:13.265Z,112.90
2018-03-03T00:51:40.784Z,109.23
2018-03-03T00:54:09.076Z,120.10
2018-03-03T00:56:36.582Z,109.70
2018-03-03T00:59:04.085Z,111.50
2018-03-03T01:01:31.602Z,106.47
2018-03-03T01:03:59.201Z,107.90
2018-03-03T01:06:26.759Z,98.10
2018-03-03T01:08:54.285Z,107.63
2018-03-03T01:11:21.794Z,112.33
2018-03-03T01:13:49.316Z,114.47
2018-03-03T01:16:16.817Z,115.43
2018-03-03T01:18:44.308Z,108.00
2018-03-03T01:21:12.603Z,106.47
2018-03-03T01:23:40.969Z,110.77
2018-03-03T01:26:09.244Z,99.37
2018-03-03T01:28:37.561Z,115.40
2018-03-03T01:31:05.081Z,102.03
2018-03-03T01:33:33.393Z,115.47
2018-03-03T01:36:00.917Z,109.30
2018-03-03T01:38:29.193Z,106.57
2018-03-03T01:40:57.467Z,112.57
2018-03-03T01:43:25.763Z,106.20
2018-03-03T01:45:53.290Z,108.97
2018-03-03T01:48:20.809Z,114.33
2018-03-03T01:50:48.347Z,109.80
2018-03-03T01:53:15.883Z,112.00
2018-03-03T01:55:43.375Z,111.07
2018-03-03T01:58:10.898Z,108.40
2018-03-03T02:00:38.412Z,115.53
2018-03-03T02:03:05.942Z,111.57
2018-03-03T02:05:33.452Z,118.17
2018-03-03T02:08:01.705Z,120.03
2018-03-03T02:10:29.533Z,105.63
2018-03-03T02:12:57.030Z,108.67
2018-03-03T02:15:24.615Z,111.77
2018-03-03T02:17:52.888Z,115.77
2018-03-03T02:20:21.268Z,111.93
2018-03-03T02:22:49.533Z,110.13
2018-03-03T02:25:17.801Z,114.53
2018-03-03T02:27:46.091Z,115.97
2018-03-03T02:30:14.350Z,112.73
2018-03-03T02:32:42.660Z,103.07
2018-03-03T02:35:10.148Z,105.50
2018-03-03T02:37:37.643Z,132.03
2018-03-03T02:40:05.933Z,119.83
2018-03-03T02:42:34.191Z,118.03
2018-03-03T02:45:02.498Z,114.50
2018-03-03T02:47:30.044Z,110.20
2018-03-03T02:49:57.591Z,115.60
2018-03-03T02:52:25.873Z,124.47
2018-03-03T02:54:53.377Z,108.90
2018-03-03T02:57:20.998Z,117.90
2018-03-03T02:59:48.497Z,119.33
2018-03-03T03:02:16.008Z,112.27
2018-03-03T03:04:43.569Z,112.17
2018-03-03T03:07:11.109Z,108.27
2018-03-03T03:09:39.385Z,106.07
2018-03-03T03:12:07.653Z,119.67
2018-03-03T03:14:35.960Z,113.90
2018-03-03T03:17:03.466Z,112.10
2018-03-03T03:19:30.962Z,122.17
2018-03-03T03:21:58.475Z,118.23
2018-03-03T03:24:25.986Z,121.60
2018-03-03T03:26:53.495Z,118.40
2018-03-03T03:29:20.995Z,114.83
2018-03-03T03:31:48.507Z,117.70
2018-03-03T03:34:16.016Z,122.90
2018-03-03T03:36:43.573Z,116.37
2018-03-03T03:39:11.099Z,114.47
2018-03-03T03:41:39.406Z,108.60
2018-03-03T03:44:06.903Z,119.77
2018-03-03T03:46:34.435Z,103.80
2018-03-03T03:49:02.007Z,119.60
2018-03-03T03:51:29.508Z,119.17
2018-03-03T03:53:57.784Z,120.37
2018-03-03T03:56:26.073Z,109.27
2018-03-03T03:58:53.621Z,113.60
2018-03-03T04:01:21.182Z,105.00
2018-03-03T04:03:48.684Z,111.23
2018-03-03T04:06:16.196Z,112.13
2018-03-03T04:08:43.761Z,113.20
2018-03-03T04:11:11.300Z,113.30
2018-03-03T04:13:39.575Z,108.70
2018-03-03T04:16:07.877Z,110.63
2018-03-03T04:18:35.394Z,105.53
2018-03-03T04:21:03.681Z,105.13
2018-03-03T04:23:31.951Z,115.90
2018-03-03T04:26:00.227Z,106.60
2018-03-03T04:28:28.509Z,109.60
2018-03-03T04:30:56.023Z,122.30
2018-03-03T04:33:23.535Z,110.67
2018-03-03T04:35:51.056Z,115.77
2018-03-03T04:38:18.554Z,121.37
2018-03-03T04:40:46.108Z,117.13
2018-03-03T04:43:13.689Z,101.03
2018-03-03T04:45:41.231Z,107.57
2018-03-03T04:48:08.735Z,106.93
2018-03-03T04:50:36.264Z,104.17
2018-03-03T04:53:03.767Z,106.60
2018-03-03T04:55:32.039Z,108.80
2018-03-03T04:58:00.303Z,104.90
2018-03-03T05:00:41.592Z,103.43
2018-03-03T05:03:15.449Z,109.00
2018-03-03T05:05:48.640Z,101.17
2018-03-03T05:08:31.032Z,98.00
2018-03-03T05:10:58.544Z,107.37
2018-03-03T05:13:26.991Z,95.77
2018-03-03T05:19:03.153Z,89.00
2018-03-03T05:24:45.230Z,98.70
2018-03-03T05:27:16.462Z,98.30
2018-03-03T05:29:49.669Z,89.07
2018-03-03T05:32:23.542Z,88.33
2018-03-03T05:38:14.201Z,94.50
2018-03-03T05:40:47.491Z,84.47
2018-03-03T05:43:20.700Z,89.77
2018-03-03T05:45:53.913Z,75.80
2018-03-03T05:48:27.208Z,83.77
2018-03-03T05:54:18.193Z,78.87
2018-03-03T05:57:00.586Z,80.50
2018-03-03T05:59:29.456Z,89.63
2018-03-03T06:05:20.715Z,81.13
2018-03-03T06:07:53.855Z,75.47
2018-03-03T06:13:22.808Z,78.67
2018-03-03T06:15:50.317Z,67.20
2018-03-03T06:18:17.981Z,75.50
2018-03-03T06:20:45.475Z,80.47
2018-03-03T06:23:13.866Z,66.37
2018-03-03T06:25:41.428Z,67.70
2018-03-03T06:28:08.941Z,72.77
2018-03-03T06:30:36.550Z,76.27
2018-03-03T06:33:04.078Z,72.20
2018-03-03T06:35:32.375Z,74.77
2018-03-03T06:37:59.884Z,66.20
2018-03-03T06:40:27.478Z,73.90
2018-03-03T06:42:55.857Z,66.80
2018-03-03T06:45:24.135Z,72.30
2018-03-03T06:47:52.417Z,68.03
2018-03-03T06:50:19.930Z,67.87
2018-03-03T06:52:47.431Z,67.67
2018-03-03T06:55:14.950Z,61.30
2018-03-03T06:57:43.219Z,67.30
2018-03-03T07:00:10.734Z,63.33
2018-03-03T07:02:38.241Z,64.00
2018-03-03T07:05:05.819Z,67.80
2018-03-03T07:07:34.094Z,66.33
2018-03-03T07:10:02.485Z,62.80
2018-03-03T07:12:30.003Z,56.33
2018-03-03T07:14:57.497Z,55.83
2018-03-03T07:17:25.020Z,51.03
2018-03-03T07:19:52.524Z,49.73
2018-03-03T07:22:20.033Z,57.63
2018-03-03T07:24:47.542Z,57.17
2018-03-03T07:27:15.173Z,58.97
2018-03-03T07:29:42.699Z,62.87
2018-03-03T07:32:10.183Z,75.30
2018-03-03T07:34:38.453Z,68.40
2018-03-03T07:37:06.734Z,71.30
2018-03-03T07:39:34.262Z,79.20
2018-03-03T07:42:01.797Z,76.23
2018-03-03T07:44:29.306Z,77.10
2018-03-03T07:46:56.869Z,85.10
2018-03-03T07:49:24.376Z,79.90
2018-03-03T07:51:51.867Z,79.70
2018-03-03T07:54:20.169Z,79.20
2018-03-03T07:57:11.375Z,80.20
2018-03-03T07:59:38.896Z,77.40
2018-03-03T08:02:06.449Z,77.37
2018-03-03T08:04:33.965Z,79.50
2018-03-03T08:07:01.455Z,85.03
2018-03-03T08:09:28.935Z,80.30
2018-03-03T08:11:57.196Z,82.50
2018-03-03T08:14:24.783Z,73.27
2018-03-03T08:16:53.061Z,75.13
2018-03-03T08:19:20.628Z,73.07
2018-03-03T08:21:48.114Z,76.83
2018-03-03T08:24:15.641Z,74.87
2018-03-03T08:26:43.135Z,73.73
2018-03-03T08:29:10.630Z,75.33
2018-03-03T08:31:38.898Z,68.00
2018-03-03T08:34:07.180Z,69.60
2018-03-03T08:36:35.458Z,64.00
2018-03-03T08:39:03.730Z,68.13
2018-03-03T08:41:31.979Z,64.83
2018-03-03T08:43:59.511Z,62.87
2018-03-03T08:46:27.026Z,64.63
2018-03-03T08:48:55.300Z,59.77
2018-03-03T08:51:23.567Z,70.93
2018-03-03T08:53:51.842Z,79.53
2018-03-03T08:56:20.135Z,76.17
2018-03-03T08:58:47.662Z,80.53
2018-03-03T09:01:15.259Z,73.47
2018-03-03T09:03:42.756Z,77.60
2018-03-03T09:06:10.258Z,73.93
2018-03-03T09:08:37.751Z,74.93
2018-03-03T09:11:05.239Z,69.83
2018-03-03T09:13:33.044Z,74.00
2018-03-03T09:16:00.351Z,71.37
2018-03-03T09:18:27.872Z,74.13
2018-03-03T09:20:55.361Z,83.90
2018-03-03T09:23:22.899Z,81.33
2018-03-03T09:25:50.521Z,76.63
2018-03-03T09:28:18.140Z,78.00
2018-03-03T09:30:45.639Z,78.00
2018-03-03T09:33:13.179Z,80.50
2018-03-03T09:35:41.441Z,81.83
2018-03-03T09:38:09.024Z,78.67
2018-03-03T09:40:37.397Z,80.27
2018-03-03T09:43:05.658Z,84.97
2018-03-03T09:45:33.912Z,82.07
2018-03-03T09:48:01.411Z,84.13
2018-03-03T09:50:28.917Z,77.97
2018-03-03T09:52:56.420Z,83.97
2018-03-03T09:55:23.971Z,83.70
2018-03-03T09:57:52.367Z,79.73
2018-03-03T10:00:19.856Z,83.17
2018-03-03T10:02:47.349Z,87.97
2018-03-03T10:05:15.645Z,89.33
2018-03-03T10:07:43.153Z,90.67
2018-03-03T10:10:10.755Z,87.03
2018-03-03T10:12:39.018Z,87.60
2018-03-03T10:15:07.429Z,83.50
2018-03-03T10:17:34.977Z,81.57
2018-03-03T10:20:02.478Z,81.53
2018-03-03T10:22:30.019Z,82.20
2018-03-03T10:24:57.541Z,87.43
2018-03-03T10:27:25.018Z,90.10
2018-03-03T10:29:52.513Z,87.83
2018-03-03T10:32:20.042Z,75.37
2018-03-03T10:34:47.544Z,82.70
2018-03-03T10:37:15.842Z,80.30
2018-03-03T10:39:43.364Z,85.03
2018-03-03T10:42:10.866Z,86.93
2018-03-03T10:44:38.368Z,86.83
2018-03-03T10:47:06.667Z,91.00
2018-03-03T10:49:34.947Z,93.90
2018-03-03T10:52:03.225Z,93.30
2018-03-03T10:54:31.531Z,98.70
2018-03-03T10:56:59.064Z,95.80
2018-03-03T10:59:27.445Z,98.47
2018-03-03T11:01:55.004Z,91.00
2018-03-03T11:04:22.501Z,89.90
2018-03-03T11:06:50.017Z,98.33
2018-03-03T11:09:17.600Z,100.00
2018-03-03T11:11:45.105Z,107.70
2018-03-03T11:14:13.361Z,98.53
2018-03-03T11:16:40.889Z,102.27
2018-03-03T11:19:08.385Z,112.63
2018-03-03T11:21:35.927Z,90.93
2018-03-03T11:24:03.430Z,92.77
2018-03-03T11:26:31.707Z,87.43
2018-03-03T11:28:59.203Z,91.87
2018-03-03T11:31:26.819Z,89.47
2018-03-03T11:33:55.093Z,84.10
2018-03-03T11:36:23.493Z,92.73
2018-03-03T11:38:51.000Z,92.17
2018-03-03T11:41:18.999Z,83.87
2018-03-03T11:43:47.249Z,83.33
2018-03-03T11:46:14.775Z,85.93
2018-03-03T11:48:42.383Z,87.80
2018-03-03T11:51:10.678Z,92.37
2018-03-03T11:53:38.163Z,85.60
2018-03-03T11:56:05.663Z,87.63
2018-03-03T11:58:33.994Z,87.67
2018-03-03T12:01:01.447Z,82.13
2018-03-03T12:03:28.972Z,77.27
2018-03-03T12:05:56.516Z,79.70
2018-03-03T12:08:24.797Z,83.17
2018-03-03T12:10:53.093Z,84.80
2018-03-03T12:13:20.599Z,80.83
2018-03-03T12:15:48.187Z,79.07
2018-03-03T12:18:16.451Z,73.50
2018-03-03T12:20:44.710Z,80.20
2018-03-03T12:23:12.187Z,77.27
2018-03-03T12:25:40.453Z,81.70
2018-03-03T12:28:08.733Z,80.07
2018-03-03T12:30:37.005Z,82.00
2018-03-03T12:33:05.269Z,82.07
2018-03-03T12:35:33.557Z,82.87
2018-03-03T12:38:01.827Z,87.57
2018-03-03T12:40:29.400Z,85.83
2018-03-03T12:42:57.078Z,77.90
2018-03-03T12:45:24.570Z,82.00
2018-03-03T12:47:52.077Z,80.23
2018-03-03T12:50:20.339Z,80.97
2018-03-03T12:52:48.737Z,77.83
2018-03-03T12:55:16.250Z,77.97
2018-03-03T12:57:43.854Z,80.77
2018-03-03T13:00:11.354Z,77.00
2018-03-03T13:02:38.836Z,85.33
2018-03-03T13:05:07.112Z,74.03
2018-03-03T13:07:35.357Z,81.87
2018-03-03T13:10:02.962Z,81.87
2018-03-03T13:12:30.480Z,79.67
2018-03-03T13:14:57.971Z,81.83
2018-03-03T13:17:26.235Z,82.00
2018-03-03T13:19:54.939Z,81.67
2018-03-03T13:22:22.435Z,85.70
2018-03-03T13:24:50.044Z,72.43
2018-03-03T13:27:18.419Z,79.00
2018-03-03T13:29:46.666Z,81.30
2018-03-03T13:32:14.257Z,69.70
2018-03-03T13:34:41.778Z,74.40
2018-03-03T13:37:09.272Z,73.60
2018-03-03T13:39:36.787Z,71.43
2018-03-03T13:42:04.289Z,73.53
2018-03-03T13:44:31.841Z,74.67
2018-03-03T13:46:59.333Z,71.67
2018-03-03T13:49:26.836Z,68.77
2018-03-03T13:51:55.092Z,62.93
2018-03-03T13:54:22.617Z,66.73
2018-03-03T13:56:50.115Z,69.90
2018-03-03T13:59:17.822Z,70.23
2018-03-03T14:01:45.340Z,71.60
2018-03-03T14:04:13.658Z,66.27
2018-03-03T14:06:41.196Z,67.30
2018-03-03T14:09:08.788Z,67.60
2018-03-03T14:11:36.293Z,68.47
2018-03-03T14:14:04.688Z,66.10
2018-03-03T14:16:32.348Z,80.67
2018-03-03T14:18:59.843Z,68.73
2018-03-03T14:21:27.464Z,63.97
2018-03-03T14:23:55.023Z,68.53
2018-03-03T14:26:22.525Z,68.00
2018-03-03T14:28:50.156Z,63.30
2018-03-03T14:31:17.787Z,73.83
2018-03-03T14:33:46.058Z,67.90
2018-03-03T14:36:14.330Z,67.50
2018-03-03T14:38:42.613Z,66.30
2018-03-03T14:41:10.993Z,67.77
2018-03-03T14:43:39.258Z,63.40
2018-03-03T14:46:07.515Z,59.70
2018-03-03T14:48:34.999Z,64.40
2018-03-03T14:51:03.315Z,69.97
2018-03-03T14:53:30.833Z,66.57
2018-03-03T14:55:58.332Z,63.50
2018-03-03T14:58:25.954Z,69.17
2018-03-03T15:00:53.454Z,73.10
2018-03-03T15:03:20.948Z,62.60
2018-03-03T15:05:49.212Z,72.37
2018-03-03T15:08:16.731Z,63.07
2018-03-03T15:10:45.219Z,70.63
2018-03-03T15:13:12.713Z,65.50
2018-03-03T15:15:40.994Z,62.43
2018-03-03T15:18:09.256Z,62.27
2018-03-03T15:20:37.557Z,70.60
2018-03-03T15:23:05.073Z,66.73
2018-03-03T15:25:32.601Z,65.53
2018-03-03T15:28:00.102Z,64.10
2018-03-03T15:30:28.351Z,69.70
2018-03-03T15:32:55.847Z,63.87
2018-03-03T15:35:24.108Z,65.50
2018-03-03T15:37:52.384Z,68.90
2018-03-03T15:40:20.698Z,61.47
2018-03-03T15:42:48.228Z,60.70
2018-03-03T15:45:16.536Z,64.90
2018-03-03T15:47:44.023Z,64.37
2018-03-03T15:50:11.637Z,65.83
2018-03-03T15:52:39.149Z,61.03
2018-03-03T15:55:06.644Z,63.40
2018-03-03T15:57:34.131Z,60.67
2018-03-03T16:00:02.024Z,56.73
2018-03-03T16:02:29.621Z,58.53
2018-03-03T16:04:57.148Z,59.30
2018-03-03T16:07:24.685Z,56.00
2018-03-03T16:09:52.188Z,62.33
2018-03-03T16:12:19.686Z,58.97
2018-03-03T16:14:47.222Z,56.93
2018-03-03T16:17:14.759Z,64.60
2018-03-03T16:19:43.041Z,56.93
2018-03-03T16:22:10.540Z,60.80
2018-03-03T16:24:38.053Z,58.87
2018-03-03T16:27:05.581Z,55.27
2018-03-03T16:29:33.862Z,62.83
2018-03-03T16:32:02.131Z,63.70
2018-03-03T16:34:30.437Z,62.50
2018-03-03T16:36:57.943Z,59.93
2018-03-03T16:39:25.459Z,63.13
2018-03-03T16:41:52.965Z,70.57
2018-03-03T16:44:20.564Z,69.70
2018-03-03T16:46:48.117Z,59.60
2018-03-03T16:49:15.660Z,67.70
2018-03-03T16:51:43.238Z,73.93
2018-03-03T16:54:10.778Z,67.53
2018-03-03T16:56:39.045Z,66.63
2018-03-03T16:59:07.346Z,70.63
2018-03-03T17:01:34.864Z,59.83
2018-03-03T17:04:02.359Z,68.00
2018-03-03T17:06:29.881Z,61.97
2018-03-03T17:08:58.177Z,67.53
2018-03-03T17:11:26.447Z,65.40
2018-03-03T17:13:54.703Z,66.20
2018-03-03T17:16:22.217Z,64.23
2018-03-03T17:18:49.729Z,65.30
2018-03-03T17:21:18.115Z,62.07
2018-03-03T17:23:46.364Z,66.57
2018-03-03T17:26:13.869Z,66.43
2018-03-03T17:28:41.381Z,62.33
2018-03-03T17:31:08.883Z,64.30
2018-03-03T17:33:36.389Z,57.93
2018-03-03T17:36:03.975Z,65.13
2018-03-03T17:38:32.324Z,60.27
2018-03-03T17:40:59.841Z,67.90
2018-03-03T17:43:27.353Z,65.40
2018-03-03T17:45:55.614Z,64.87
2018-03-03T17:48:23.129Z,59.87
2018-03-03T17:50:50.630Z,61.80
2018-03-03T17:53:18.188Z,60.33
2018-03-03T17:55:45.687Z,60.00
2018-03-03T17:58:13.206Z,56.83
2018-03-03T18:00:40.719Z,66.80
2018-03-03T18:03:08.241Z,64.40
2018-03-03T18:05:36.500Z,70.50
2018-03-03T18:08:04.017Z,65.50
2018-03-03T18:10:31.637Z,67.07
2018-03-03T18:12:59.209Z,62.47
2018-03-03T18:15:26.713Z,67.20
2018-03-03T18:17:55.832Z,67.93
2018-03-03T18:20:24.101Z,60.97
2018-03-03T18:22:52.410Z,66.53
2018-03-03T18:25:19.905Z,72.87
2018-03-03T18:27:47.517Z,73.03
2018-03-03T18:30:15.030Z,65.43
2018-03-03T18:32:42.575Z,69.13
2018-03-03T18:35:10.084Z,63.30
2018-03-03T18:37:38.366Z,66.40
2018-03-03T18:40:05.966Z,71.43
2018-03-03T18:42:33.490Z,73.90
2018-03-03T18:45:01.042Z,72.67
2018-03-03T18:47:28.557Z,73.30
2018-03-03T18:49:56.174Z,71.23
2018-03-03T18:52:23.727Z,69.87
2018-03-03T18:54:51.240Z,63.00
2018-03-03T18:57:19.616Z,77.67
2018-03-03T18:59:47.877Z,67.27
2018-03-03T19:02:15.375Z,69.87
2018-03-03T19:04:42.886Z,73.80
2018-03-03T19:07:11.148Z,68.73
2018-03-03T19:09:38.665Z,72.57
2018-03-03T19:12:06.183Z,66.47
2018-03-03T19:14:33.726Z,73.47
2018-03-03T19:17:01.228Z,81.30
2018-03-03T19:19:28.736Z,71.70
2018-03-03T19:21:56.354Z,68.90
2018-03-03T19:24:23.861Z,72.87
2018-03-03T19:26:51.403Z,65.80
2018-03-03T19:29:19.067Z,68.97
2018-03-03T19:31:46.529Z,62.23
2018-03-03T19:34:14.045Z,68.37
2018-03-03T19:36:41.566Z,67.70
2018-03-03T19:39:09.908Z,70.70
2018-03-03T19:41:37.766Z,70.43
2018-03-03T19:44:05.433Z,66.97
2018-03-03T19:46:32.973Z,71.60
2018-03-03T19:49:00.475Z,63.93
2018-03-03T19:51:27.995Z,67.83
2018-03-03T19:53:56.135Z,68.10
2018-03-03T19:56:23.632Z,69.30
2018-03-03T19:58:51.164Z,74.03
2018-03-03T20:01:18.698Z,64.63
2018-03-03T20:03:46.959Z,70.33
2018-03-03T20:06:15.258Z,66.73
2018-03-03T20:08:42.972Z,69.53
2018-03-03T20:11:10.491Z,73.53
2018-03-03T20:13:38.026Z,70.80
2018-03-03T20:16:05.517Z,75.10
2018-03-03T20:18:33.060Z,72.87
2018-03-03T20:21:00.596Z,77.17
2018-03-03T20:23:28.866Z,72.60
2018-03-03T20:25:57.129Z,70.53
2018-03-03T20:28:25.629Z,71.63
2018-03-03T20:31:03.707Z,79.70
2018-03-03T20:33:32.316Z,78.10
2018-03-03T20:36:00.085Z,69.73
2018-03-03T20:38:38.482Z,76.10
2018-03-03T20:41:06.184Z,74.50
2018-03-03T20:43:35.583Z,74.27
2018-03-03T20:46:03.553Z,80.60
2018-03-03T20:48:31.506Z,83.03
2018-03-03T20:51:01.779Z,80.80
2018-03-03T20:53:30.968Z,76.87
2018-03-03T20:56:00.143Z,69.87
2018-03-03T20:58:29.119Z,72.67
2018-03-03T21:00:58.168Z,78.47
2018-03-03T21:03:26.747Z,78.33
2018-03-03T21:05:55.795Z,79.10
2018-03-03T21:08:25.301Z,74.10
2018-03-03T21:10:54.830Z,67.73
2018-03-03T21:13:22.433Z,72.40
2018-03-03T21:15:49.919Z,71.43
2018-03-03T21:18:17.429Z,76.70
2018-03-03T21:20:44.925Z,73.60
2018-03-03T21:23:12.449Z,69.50
2018-03-03T21:25:39.935Z,73.87
2018-03-03T21:28:07.438Z,66.70
2018-03-03T21:30:34.998Z,75.60
2018-03-03T21:33:02.502Z,69.87
2018-03-03T21:35:30.024Z,69.57
2018-03-03T21:37:57.518Z,69.50
2018-03-03T21:40:25.029Z,72.03
2018-03-03T21:42:52.557Z,69.30
2018-03-03T21:45:20.911Z,67.97
2018-03-03T21:47:48.407Z,75.63
2018-03-03T21:50:16.689Z,74.83
2018-03-03T21:52:44.205Z,73.70
2018-03-03T21:55:12.485Z,72.57
2018-03-03T21:57:39.971Z,72.47
2018-03-03T22:00:07.473Z,70.23
2018-03-03T22:02:34.984Z,75.03
2018-03-03T22:05:03.265Z,75.07
2018-03-03T22:07:30.744Z,71.90
2018-03-03T22:09:58.320Z,71.83
2018-03-03T22:12:25.846Z,73.70
2018-03-03T22:14:53.621Z,71.83
2018-03-03T22:17:21.250Z,76.67
2018-03-03T22:19:49.546Z,75.03
2018-03-03T22:22:17.086Z,70.47
2018-03-03T22:24:44.624Z,75.37
2018-03-03T22:27:12.882Z,79.10
2018-03-03T22:29:40.405Z,83.37
2018-03-03T22:32:07.927Z,78.97
2018-03-03T22:34:35.504Z,77.53
2018-03-03T22:37:03.015Z,76.87
2018-03-03T22:39:30.623Z,77.40
2018-03-03T22:41:58.150Z,73.80
2018-03-03T22:44:26.457Z,83.73
2018-03-03T22:46:53.944Z,76.27
2018-03-03T22:49:21.583Z,75.33
2018-03-03T22:51:49.111Z,77.60
2018-03-03T22:54:16.621Z,71.27
2018-03-03T22:56:44.215Z,77.70
2018-03-03T22:59:12.481Z,68.43
2018-03-03T23:01:40.769Z,72.63
2018-03-03T23:04:08.365Z,66.90
2018-03-03T23:06:35.867Z,75.03
2018-03-03T23:09:04.241Z,67.30
2018-03-03T23:11:32.595Z,72.70
2018-03-03T23:14:00.112Z,70.10
2018-03-03T23:16:27.822Z,79.17
2018-03-03T23:18:55.332Z,71.70
2018-03-03T23:21:22.893Z,74.90
2018-03-03T23:23:50.430Z,80.47
2018-03-03T23:26:19.035Z,66.90
2018-03-03T23:28:46.636Z,69.17
2018-03-03T23:31:14.237Z,74.60
2018-03-03T23:33:41.912Z,68.77
2018-03-03T23:36:09.520Z,70.87
2018-03-03T23:38:37.108Z,74.20
2018-03-03T23:41:04.622Z,75.20
2018-03-03T23:43:32.177Z,72.43
2018-03-03T23:45:59.746Z,66.73
2018-03-03T23:48:27.333Z,84.17
2018-03-03T23:50:54.881Z,82.40
2018-03-03T23:53:23.157Z,73.03
2018-03-03T23:55:51.445Z,78.17
2018-03-03T23:58:18.964Z,79.67
